Flight Track Log - Related Links

Times and Time Zones

All times are in EST time to prevent confusion due to time zone crossing. See the ASH2807 flight status page for this flight to view local times or setup timezone preferences in your user account.

Time Position Orientation Groundspeed Altitude Reporting Facility
EST Latitude Longitude Course Direction KTS MPH feet Rate Location/Type
Wed 08:42:28 PM 35.2636 -80.9306 17° North 176 203 2,900  Level Atlanta Center
Wed 08:43:22 PM 35.3022 -80.8831 45° Northeast 232 267 4,700 2,149 Climbing Atlanta Center
Wed 08:43:35 PM 35.3019 -80.8731 92° East 255 293 5,300 2,800 Climbing Atlanta Center
Wed 08:44:22 PM 35.2975 -80.7892 94° East 266 306 7,500 2,748 Climbing Atlanta Center
Wed 08:45:22 PM 35.2869 -80.7056 99° East 290 334 10,200 2,300 Climbing Atlanta Center
Wed 08:46:22 PM 35.2106 -80.6603 154° Southeast 262 302 12,100 2,000 Climbing Atlanta Center
Wed 08:47:22 PM 35.1178 -80.6997 199° South 258 297 14,200 2,200 Climbing Atlanta Center
Wed 08:48:22 PM 35.0253 -80.7467 203° Southwest 301 346 16,500 2,149 Climbing Atlanta Center
Wed 08:50:43 PM 34.7853 -80.8122 193° South 380 437 21,400 1,642 Climbing Jacksonville Center
Wed 08:51:43 PM 34.6750 -80.8300 188° South 391 450 22,000 300 Climbing Jacksonville Center
Wed 08:52:43 PM 34.5544 -80.8556 190° South 419 482 22,000  Level Jacksonville Center
Wed 08:53:43 PM 34.4356 -80.8633 183° South 434 499 22,000  Level Jacksonville Center
Wed 08:54:43 PM 34.3128 -80.8839 188° South 434 499 22,000  Level Jacksonville Center
Wed 08:55:43 PM 34.2131 -80.8989 187° South 424 488 22,000  Level Jacksonville Center
Wed 08:56:43 PM 34.0983 -80.9164 187° South 424 488 22,000  Level Jacksonville Center
Wed 08:57:43 PM 33.9797 -80.9342 187° South 424 488 22,000  Level Jacksonville Center
Wed 08:58:43 PM 33.8675 -80.9517 187° South 424 488 22,000 -400 Level Jacksonville Center
Wed 08:59:43 PM 33.7528 -80.9692 187° South 419 482 21,200 -1,250 Descending Jacksonville Center
Wed 09:00:43 PM 33.6322 -80.9867 187° South 429 494 19,500 -1,700 Descending Jacksonville Center
Wed 09:01:43 PM 33.5156 -81.0042 187° South 429 494 17,800 -1,600 Descending Jacksonville Center
Wed 09:02:43 PM 33.4031 -81.0217 187° South 422 486 16,300 -1,600 Descending Jacksonville Center
Wed 09:03:43 PM 33.2969 -81.0361 186° South 409 471 14,600 -1,700 Descending Jacksonville Center
Wed 09:04:43 PM 33.1969 -81.0506 187° South 390 449 12,900 -1,700 Descending Jacksonville Center
Wed 09:05:43 PM 33.0969 -81.0653 187° South 370 426 11,200 -1,000 Descending Jacksonville Center
Wed 09:06:43 PM 32.9989 -81.0794 187° South 370 426 10,900 -150 Descending Jacksonville Center
Wed 09:07:43 PM 32.9031 -81.0939 187° South 365 420 10,900  Level Jacksonville Center
Wed 09:08:43 PM 32.8031 -81.1058 186° South 358 412 10,900 50 Level Jacksonville Center
Wed 09:09:43 PM 32.7053 -81.1225 188° South 363 418 11,000 50 Climbing Jacksonville Center
Wed 09:10:43 PM 32.5969 -81.1394 188° South 368 423 11,000 -350 Level Jacksonville Center
Wed 09:11:43 PM 32.5244 -81.1778 204° Southwest 335 386 10,300 -900 Descending Jacksonville Center
Wed 09:12:43 PM 32.4522 -81.2308 212° Southwest 286 329 9,200 -1,200 Descending Jacksonville Center
Wed 09:13:43 PM 32.4003 -81.2686 212° Southwest 256 295 7,900 -1,800 Descending Jacksonville Center
Wed 09:14:43 PM 32.3383 -81.3214 216° Southwest 256 295 5,600 -1,950 Descending Jacksonville Center
Wed 09:15:43 PM 32.2847 -81.3764 221° Southwest 261 300 4,000 -1,600 Descending Jacksonville Center
Wed 09:16:43 PM 32.2311 -81.4314 221° Southwest 261 300 2,400 -1,000 Descending Jacksonville Center
Wed 09:17:43 PM 32.1836 -81.4639 210° Southwest 239 275 2,000 -400 Descending Jacksonville Center

Login

Don't have an account? Register now (free) for customized features, flight alerts, and more!